Overview Statistics Trail Chart Weather Telemetry Raw packets
 

This is the latest recevied packets stored in our database for station/object DN9WHV-10. If no packets are shown the sender has not sent any packets the latest 24 hours.

If you compare the raw packets with similar data from other websites it may differ (especially the path), the reason is that we are not collecting packets from the same APRS-IS servers. Each APRS-IS server performes duplicate filtering, and which packet that is considered to be a duplicate may differ depending on which APRS-IS server you receive your data from.

<< 1 2 3 4 >>

1788259740: DN9WHV-10>APRSMC,TCPIP*,qAR,DN9WHV-12:T#117,1017.5,18.7,0.0,1018.3,0.0,00000000

1788259740: DN9WHV-10>APRSMC,TCPIP*,qAR,DN9WHV-12:!5332.36N/00803.75E_WX WHV I16#DN9WHV-10 TEST/B=100/A=000016/N6

1788257919: DN9WHV-10>APRSMC,TCPIP*,qAR,DB0FRI-12:!5332.36N/00803.75E_WX WHV I16#DN9WHV-10 TEST/B=100/A=000016/N6

1788257919: DN9WHV-10>APRSMC,TCPIP*,qAR,DB0FRI-12:T#122,1017.0,22.9,0.0,1017.8,0.0,00000000

1788257886: DN9WHV-10>APRSMC,TCPIP*,qAR,DN9WHV-12:T#116,1017.0,22.9,0.0,1017.8,0.0,00000000

1788257886: DN9WHV-10>APRSMC,TCPIP*,qAR,DN9WHV-12:!5332.36N/00803.75E_WX WHV I16#DN9WHV-10 TEST/B=100/A=000016/N6

1788256050: DN9WHV-10>APRSMC,TCPIP*,qAR,DN9WHV-12:T#115,1016.7,23.3,0.0,1017.5,0.0,00000000

1788256050: DN9WHV-10>APRSMC,TCPIP*,qAR,DN9WHV-12:!5332.36N/00803.75E_WX WHV I16#DN9WHV-10 TEST/B=100/A=000016/N7

1788254219: DN9WHV-10>APRSMC,TCPIP*,qAR,DN9WHV-12:T#114,1016.8,20.4,0.0,1017.6,0.0,00000000

1788254219: DN9WHV-10>APRSMC,TCPIP*,qAR,DN9WHV-12:!5332.36N/00803.75E_WX WHV I16#DN9WHV-10 TEST/B=100/A=000016/N7

1788252392: DN9WHV-10>APRSMC,TCPIP*,qAR,DN9WHV-12:T#113,1016.6,22.0,0.0,1017.5,0.0,00000000

1788252392: DN9WHV-10>APRSMC,TCPIP*,qAR,DN9WHV-12:!5332.36N/00803.74E_WX WHV I16#DN9WHV-10 TEST/B=100/A=000016/N6

1788250559: DN9WHV-10>APRSMC,TCPIP*,qAR,DN9WHV-12:T#112,1016.5,20.4,0.0,1017.3,0.0,00000000

1788250559: DN9WHV-10>APRSMC,TCPIP*,qAR,DN9WHV-12:!5332.36N/00803.75E_WX WHV I16#DN9WHV-10 TEST/B=100/A=000016/N7

1788248729: DN9WHV-10>APRSMC,TCPIP*,qAR,DN9WHV-12:T#111,1016.1,24.2,0.0,1016.9,0.0,00000000

1788248729: DN9WHV-10>APRSMC,TCPIP*,qAR,DN9WHV-12::DN9WHV-10:UNIT.hPa,C deg,%,hPa,C deg,Y/N,O/N,O/N,O/N,O/N,O/N,O/N,O/N

1788248729: DN9WHV-10>APRSMC,TCPIP*,qAR,DN9WHV-12::DN9WHV-10:PARM.Press,Temp.in,Hum,QNH,Temp.out,track,-,-,-,-,-,-,-

1788248729: DN9WHV-10>APRSMC,TCPIP*,qAR,DN9WHV-12::DN9WHV-10:EQNS.0,1,0,0,1,0,0,1,0,0,1,0,0,1,0

1788248729: DN9WHV-10>APRSMC,TCPIP*,qAR,DN9WHV-12:!5332.36N/00803.75E_WX WHV I16#DN9WHV-10 TEST/B=100/A=000020/N6

1788246902: DN9WHV-10>APRSMC,TCPIP*,qAR,DN9WHV-12:T#110,1016.2,20.6,0.0,1017.0,0.0,00000000

1788246902: DN9WHV-10>APRSMC,TCPIP*,qAR,DN9WHV-12:!5332.36N/00803.75E_WX WHV I16#DN9WHV-10 TEST/B=100/A=000020/N5

1788245068: DN9WHV-10>APRSMC,TCPIP*,qAR,DN9WHV-12:T#109,1016.1,17.6,0.0,1016.9,0.0,00000000

1788245068: DN9WHV-10>APRSMC,TCPIP*,qAR,DN9WHV-12:!5332.36N/00803.75E_WX WHV I16#DN9WHV-10 TEST/B=100/A=000016/N5

1788243239: DN9WHV-10>APRSMC,TCPIP*,qAR,DN9WHV-12:T#108,1015.9,16.5,0.0,1016.7,0.0,00000000

1788243239: DN9WHV-10>APRSMC,TCPIP*,qAR,DN9WHV-12:!5332.36N/00803.75E_WX WHV I16#DN9WHV-10 TEST/B=100/A=000013/N6